LiveATC.Net - Listen to live air traffic control over the Internet!


ICAO: MMTJ  IATA: TIJ   Airport: Tijuana International Airport
City: Tijuana
Country: Mexico   Continent: North America
MMTJ METAR Weather: MMTJ 241750Z 29008KT 6SM SKC 27/17 A2995 RMK SLP142 52004 913 HZY
MMTJ Flight Activity (FlightAware)

MMTJ Approach
Feed Status: UP   Listeners: 1
Listen in your browser - HTML5 player (in browser, HTML5)
Click here to listen with your own player (launches your MP3 player)
MMTJ Approach Audio Archives
FacilityFrequency
Tijuana Approach120.300

MMTJ Twr/Ramp
Feed Status: UP   Listeners: 1
Listen in your browser - HTML5 player (in browser, HTML5)
Click here to listen with your own player (launches your MP3 player)
MMTJ Twr/Ramp Audio Archives
FacilityFrequency
Tijuana Ramp126.100
Tijuana Tower118.100

NOTICE

Unauthorized use prohibited. See LiveATC.net Terms of Service


Airport/ARTCC Code
Frequency Search
(e.g., 124.400, 128.75)
Site-wide search
 


Browse LiveATC Feeds
Top 50 LiveATC Feeds
LiveATC Feed Map
Bad Weather Areas

LiveATC FAQ
Offer LiveATC feed
Contact LiveATC.net
Press Inquiries

LiveATC on iPhone
LiveATC on Android

Windows Phone
Windows 8/10

LiveATC Mobile
(Mobile browser)

ATC Audio Archives
Interesting Recordings

LiveATC Forums


Home Page
About LiveATC.net
Make a Donation
Terms of Use
Privacy Policy

Canadian Air Freqs

AIRMETs/SIGMETs

FAA Airport Status
Nat'l Airspace Status
Arrival Demand Charts


Server Software By:
Icecast.org
Liquidsoap